createdAt,value
2022-09-01T00:01:49.527Z,94881.50
2022-09-01T00:04:20.242Z,94881.50
2022-09-01T00:06:48.414Z,94881.31
2022-09-01T00:09:18.787Z,94880.38
2022-09-01T00:11:50.731Z,94879.41
2022-09-01T00:14:29.457Z,94879.38
2022-09-01T00:17:03.352Z,94878.19
2022-09-01T00:19:30.536Z,94868.84
2022-09-01T00:21:57.485Z,94874.03
2022-09-01T00:24:26.383Z,94872.63
2022-09-01T00:26:54.875Z,94872.44
2022-09-01T00:29:22.678Z,94875.31
2022-09-01T00:31:50.466Z,94868.84
2022-09-01T00:34:17.859Z,94864.06
2022-09-01T00:36:44.796Z,94877.19
2022-09-01T00:39:12.659Z,94873.81
2022-09-01T00:41:44.942Z,94872.97
2022-09-01T00:44:16.001Z,94883.69
2022-09-01T00:46:49.761Z,94890.47
2022-09-01T00:49:26.728Z,94890.69
2022-09-01T00:51:58.763Z,94898.00
2022-09-01T00:54:31.271Z,94891.69
2022-09-01T00:56:58.734Z,94895.66
2022-09-01T00:59:26.867Z,94893.63
2022-09-01T01:01:55.999Z,94888.94
2022-09-01T01:04:23.368Z,94892.16
2022-09-01T01:07:02.342Z,94897.81
2022-09-01T01:09:36.341Z,94903.84
2022-09-01T01:12:05.305Z,94894.78
2022-09-01T01:14:36.914Z,94908.19
2022-09-01T01:17:04.347Z,94908.19
2022-09-01T01:20:05.876Z,94900.13
2022-09-01T01:23:07.723Z,94901.22
2022-09-01T01:25:38.528Z,94897.00
2022-09-01T01:28:09.352Z,94899.66
2022-09-01T01:30:39.733Z,94909.91
2022-09-01T01:33:07.375Z,94908.91
2022-09-01T01:35:37.431Z,94904.66
2022-09-01T01:38:07.999Z,94899.34
2022-09-01T01:40:38.094Z,94902.66
2022-09-01T01:43:05.421Z,94895.78
2022-09-01T01:45:32.408Z,94909.53
2022-09-01T01:48:01.207Z,94908.19
2022-09-01T01:50:35.849Z,94908.97
2022-09-01T01:53:10.825Z,94914.91
2022-09-01T01:55:41.930Z,94917.59
2022-09-01T01:58:12.369Z,94922.66
2022-09-01T02:00:39.751Z,94919.81
2022-09-01T02:03:07.595Z,94926.91
2022-09-01T02:05:36.248Z,94926.69
2022-09-01T02:08:08.709Z,94921.81
2022-09-01T02:10:42.360Z,94920.56
2022-09-01T02:13:16.188Z,94920.31
2022-09-01T02:15:50.162Z,94922.22
2022-09-01T02:18:31.147Z,94931.16
2022-09-01T02:21:01.067Z,94931.63
2022-09-01T02:23:28.410Z,94926.72
2022-09-01T02:26:16.167Z,94932.00
2022-09-01T02:28:55.596Z,94932.09
2022-09-01T02:31:29.358Z,94916.59
2022-09-01T02:34:01.139Z,94926.16
2022-09-01T02:36:28.964Z,94907.94
2022-09-01T02:38:56.500Z,94923.28
2022-09-01T02:41:27.205Z,94919.28
2022-09-01T02:43:54.728Z,94916.94
2022-09-01T02:46:24.504Z,94912.09
2022-09-01T02:48:53.049Z,94908.81
2022-09-01T02:51:25.845Z,94914.06
2022-09-01T02:53:53.381Z,94911.38
2022-09-01T02:56:25.109Z,94912.25
2022-09-01T02:58:54.873Z,94900.47
2022-09-01T03:01:29.376Z,94904.91
2022-09-01T03:04:04.187Z,94902.47
2022-09-01T03:06:34.564Z,94904.44
2022-09-01T03:09:02.504Z,94902.69
2022-09-01T03:11:31.624Z,94900.69
2022-09-01T03:13:58.760Z,94905.59
2022-09-01T03:16:25.689Z,94903.09
2022-09-01T03:18:53.165Z,94911.16
2022-09-01T03:21:20.915Z,94908.25
2022-09-01T03:23:51.016Z,94908.38
2022-09-01T03:26:21.122Z,94913.16
2022-09-01T03:28:50.763Z,94908.72
2022-09-01T03:31:19.583Z,94905.38
2022-09-01T03:33:48.454Z,94908.03
2022-09-01T03:36:24.952Z,94902.91
2022-09-01T03:38:52.946Z,94907.81
2022-09-01T03:41:25.117Z,94911.34
2022-09-01T03:43:58.153Z,94915.41
2022-09-01T03:46:34.246Z,94920.75
2022-09-01T03:49:06.891Z,94925.16
2022-09-01T03:51:38.006Z,94918.28
2022-09-01T03:54:06.936Z,94914.25
2022-09-01T03:56:34.083Z,94920.03
2022-09-01T03:59:01.027Z,94915.78
2022-09-01T04:01:34.952Z,94919.56
2022-09-01T04:04:03.104Z,94910.44
2022-09-01T04:06:33.170Z,94916.69
2022-09-01T04:09:03.381Z,94915.00
2022-09-01T04:11:35.122Z,94926.25
2022-09-01T04:14:02.345Z,94926.44
2022-09-01T04:16:53.308Z,94923.88
2022-09-01T04:19:26.679Z,94930.66
2022-09-01T04:22:02.365Z,94922.50
2022-09-01T04:24:45.097Z,94917.81
2022-09-01T04:27:13.791Z,94926.25
2022-09-01T04:29:41.818Z,94920.94
2022-09-01T04:32:13.135Z,94918.47
2022-09-01T04:34:43.450Z,94918.03
2022-09-01T04:37:19.470Z,94920.81
2022-09-01T04:39:56.065Z,94914.25
2022-09-01T04:42:27.383Z,94910.91
2022-09-01T04:44:57.519Z,94921.44
2022-09-01T04:47:35.200Z,94920.47
2022-09-01T04:50:14.922Z,94923.16
2022-09-01T04:53:06.194Z,94915.28
2022-09-01T04:55:43.670Z,94924.44
2022-09-01T04:58:13.776Z,94924.16
2022-09-01T05:00:41.077Z,94920.84
2022-09-01T05:03:09.367Z,94924.22
2022-09-01T05:06:00.196Z,94919.25
2022-09-01T05:08:29.034Z,94914.44
2022-09-01T05:11:06.139Z,94922.03
2022-09-01T05:13:39.819Z,94924.03
2022-09-01T05:16:13.193Z,94908.13
2022-09-01T05:18:47.898Z,94921.59
2022-09-01T05:21:22.190Z,94916.47
2022-09-01T05:23:50.603Z,94917.56
2022-09-01T05:26:23.840Z,94910.47
2022-09-01T05:28:56.877Z,94912.88
2022-09-01T05:31:25.799Z,94918.03
2022-09-01T05:33:52.600Z,94921.63
2022-09-01T05:36:23.538Z,94920.50
2022-09-01T05:38:52.385Z,94918.28
2022-09-01T05:41:21.064Z,94904.69
2022-09-01T05:43:55.154Z,94913.16
2022-09-01T05:46:28.245Z,94907.13
2022-09-01T05:48:57.300Z,94907.38
2022-09-01T05:51:44.318Z,94907.47
2022-09-01T05:54:14.538Z,94896.00
2022-09-01T05:56:44.786Z,94915.03
2022-09-01T05:59:24.784Z,94911.13
2022-09-01T06:01:57.962Z,94904.66
2022-09-01T06:04:26.984Z,94912.25
2022-09-01T06:07:09.378Z,94911.09
2022-09-01T06:09:42.795Z,94906.88
2022-09-01T06:12:18.415Z,94903.75
2022-09-01T06:14:48.950Z,94891.69
2022-09-01T06:17:25.119Z,94887.91
2022-09-01T06:19:56.063Z,94899.66
2022-09-01T06:22:25.099Z,94897.31
2022-09-01T06:24:57.971Z,94892.91
2022-09-01T06:27:32.282Z,94901.09
2022-09-01T06:29:59.878Z,94895.47
2022-09-01T06:32:27.090Z,94894.34
2022-09-01T06:34:58.172Z,94905.84
2022-09-01T06:37:25.761Z,94903.69
2022-09-01T06:39:57.627Z,94902.25
2022-09-01T06:42:25.148Z,94887.84
2022-09-01T06:44:57.443Z,94883.97
2022-09-01T06:47:24.968Z,94876.84
2022-09-01T06:49:55.938Z,94893.72
2022-09-01T06:52:25.815Z,94887.06
2022-09-01T06:54:55.016Z,94875.09
2022-09-01T07:03:09.507Z,94887.56
2022-09-01T07:06:01.433Z,94899.47
2022-09-01T07:14:28.189Z,94891.34
2022-09-01T07:19:51.526Z,94883.28
2022-09-01T07:25:12.932Z,94878.16
2022-09-01T07:28:01.624Z,94880.13
2022-09-01T07:30:31.993Z,94871.38
2022-09-01T07:33:41.593Z,94877.34
2022-09-01T07:39:48.397Z,94879.00
2022-09-01T07:42:30.980Z,94883.97
2022-09-01T07:44:20.380Z,94879.78
2022-09-01T07:53:04.744Z,94866.28
2022-09-01T07:55:32.408Z,94876.66
2022-09-01T07:58:02.306Z,94882.06
2022-09-01T08:00:31.704Z,94873.84
2022-09-01T08:03:04.127Z,94877.09
2022-09-01T08:05:31.955Z,94881.72
2022-09-01T08:07:58.848Z,94879.00
2022-09-01T08:10:32.107Z,94879.59
2022-09-01T08:12:59.386Z,94881.81
2022-09-01T08:16:06.753Z,94874.22
2022-09-01T08:18:15.053Z,94876.50
2022-09-01T08:20:45.657Z,94863.25
2022-09-01T08:23:31.391Z,94863.44
2022-09-01T08:25:58.735Z,94870.16
2022-09-01T08:28:27.079Z,94861.41
2022-09-01T08:30:56.423Z,94839.38
2022-09-01T08:33:26.456Z,94852.41
2022-09-01T08:35:54.139Z,94853.25
2022-09-01T08:38:22.334Z,94851.75
2022-09-01T08:40:57.053Z,94853.94
2022-09-01T08:44:14.399Z,94840.50
2022-09-01T08:46:43.732Z,94844.00
2022-09-01T08:49:27.808Z,94849.66
2022-09-01T08:52:22.659Z,94837.09
2022-09-01T08:54:58.023Z,94842.00
2022-09-01T08:57:32.838Z,94824.78
2022-09-01T09:00:23.395Z,94836.81
2022-09-01T09:03:00.280Z,94829.09
2022-09-01T09:05:43.349Z,94827.84
2022-09-01T09:08:46.010Z,94813.94
2022-09-01T09:11:59.015Z,94812.53
2022-09-01T09:14:34.946Z,94807.97
2022-09-01T09:17:04.388Z,94816.44
2022-09-01T09:19:34.895Z,94812.00
2022-09-01T09:22:05.987Z,94806.38
2022-09-01T09:24:56.384Z,94808.75
2022-09-01T09:27:32.523Z,94805.53
2022-09-01T09:30:23.868Z,94805.59
2022-09-01T09:35:44.339Z,94790.97
2022-09-01T09:38:21.762Z,94797.94
2022-09-01T09:41:25.760Z,94792.41
2022-09-01T09:44:05.922Z,94794.47
2022-09-01T09:46:32.818Z,94784.81
2022-09-01T09:49:21.630Z,94784.06
2022-09-01T09:52:01.950Z,94782.06
2022-09-01T09:54:31.619Z,94774.63
2022-09-01T09:57:17.592Z,94781.69
2022-09-01T10:00:00.543Z,94781.75
2022-09-01T10:02:36.137Z,94780.81
2022-09-01T10:05:23.896Z,94775.66
2022-09-01T10:07:51.616Z,94779.66
2022-09-01T10:10:29.739Z,94778.59
2022-09-01T10:12:58.000Z,94771.53
2022-09-01T10:15:32.468Z,94766.63
2022-09-01T10:18:31.997Z,94767.00
2022-09-01T10:21:08.513Z,94764.56
2022-09-01T10:23:38.790Z,94761.78
2022-09-01T10:26:37.439Z,94758.25
2022-09-01T10:29:15.812Z,94768.44
2022-09-01T10:31:43.347Z,94760.81
2022-09-01T10:34:19.416Z,94769.38
2022-09-01T10:36:55.657Z,94759.66
2022-09-01T10:39:30.530Z,94753.91
2022-09-01T10:42:07.257Z,94754.66
2022-09-01T10:44:55.179Z,94756.25
2022-09-01T10:47:31.121Z,94749.22
2022-09-01T10:50:01.830Z,94754.66
2022-09-01T10:52:43.860Z,94755.78
2022-09-01T10:55:26.968Z,94745.38
2022-09-01T11:01:48.288Z,94753.88
2022-09-01T11:04:22.100Z,94739.94
2022-09-01T11:09:45.003Z,94732.94
2022-09-01T11:12:29.216Z,94728.31
2022-09-01T11:15:02.690Z,94720.53
2022-09-01T11:17:56.154Z,94722.47
2022-09-01T11:20:29.717Z,94717.72
2022-09-01T11:23:04.833Z,94728.53
2022-09-01T11:25:45.814Z,94722.06
2022-09-01T11:28:17.866Z,94722.91
2022-09-01T11:31:14.400Z,94710.34
2022-09-01T11:34:19.092Z,94710.19
2022-09-01T11:36:47.282Z,94700.66
2022-09-01T11:39:15.154Z,94704.06
2022-09-01T11:41:48.265Z,94689.91
2022-09-01T11:44:26.434Z,94686.00
2022-09-01T11:47:03.236Z,94689.63
2022-09-01T11:49:33.458Z,94681.16
2022-09-01T11:52:02.245Z,94672.00
2022-09-01T11:54:37.761Z,94667.44
2022-09-01T11:57:38.460Z,94667.53
2022-09-01T12:00:10.184Z,94674.19
2022-09-01T12:02:50.372Z,94665.09
2022-09-01T12:05:38.987Z,94666.28
2022-09-01T12:08:18.366Z,94661.47
2022-09-01T12:10:51.055Z,94658.59
2022-09-01T12:13:23.429Z,94665.22
2022-09-01T12:16:17.363Z,94659.94
2022-09-01T12:18:51.564Z,94656.53
2022-09-01T12:21:28.268Z,94660.25
2022-09-01T12:24:12.353Z,94658.47
2022-09-01T12:26:40.439Z,94655.25
2022-09-01T12:29:08.122Z,94652.72
2022-09-01T12:31:35.452Z,94660.28
2022-09-01T12:34:05.185Z,94655.78
2022-09-01T12:36:35.869Z,94649.88
2022-09-01T12:39:18.318Z,94648.75
2022-09-01T12:41:48.689Z,94656.63
2022-09-01T12:44:34.597Z,94650.72
2022-09-01T12:47:10.550Z,94638.44
2022-09-01T12:49:48.085Z,94646.25
2022-09-01T12:52:25.884Z,94652.13
2022-09-01T12:55:47.336Z,94648.84
2022-09-01T12:58:07.466Z,94642.63
2022-09-01T13:00:36.671Z,94647.28
2022-09-01T13:03:05.239Z,94644.22
2022-09-01T13:05:42.350Z,94636.59
2022-09-01T13:08:11.262Z,94636.28
2022-09-01T13:10:43.228Z,94640.47
2022-09-01T13:13:11.788Z,94633.41
2022-09-01T13:15:41.031Z,94632.47
2022-09-01T13:18:07.845Z,94628.16
2022-09-01T13:20:35.478Z,94616.72
2022-09-01T13:23:02.730Z,94618.13
2022-09-01T13:25:29.781Z,94616.72
2022-09-01T13:27:56.650Z,94619.84
2022-09-01T13:30:28.305Z,94617.84
2022-09-01T13:35:42.773Z,94625.59
2022-09-01T13:38:09.996Z,94626.78
2022-09-01T13:40:36.877Z,94628.69
2022-09-01T13:43:04.772Z,94624.38
2022-09-01T13:45:32.005Z,94629.22
2022-09-01T13:48:16.111Z,94631.78
2022-09-01T13:53:33.493Z,94633.38
2022-09-01T13:56:00.394Z,94631.50
2022-09-01T13:58:27.416Z,94632.56
2022-09-01T14:00:54.260Z,94638.16
2022-09-01T14:03:23.483Z,94621.72
2022-09-01T14:05:50.724Z,94620.47
2022-09-01T14:08:21.059Z,94631.41
2022-09-01T14:10:51.071Z,94626.97
2022-09-01T14:13:20.827Z,94633.31
2022-09-01T14:15:48.401Z,94638.72
2022-09-01T14:18:16.570Z,94643.00
2022-09-01T14:20:47.740Z,94619.44
2022-09-01T14:23:16.211Z,94634.84
2022-09-01T14:25:45.877Z,94637.63
2022-09-01T14:28:13.578Z,94634.69
2022-09-01T14:30:44.030Z,94628.72
2022-09-01T14:33:11.727Z,94641.41
2022-09-01T14:35:41.576Z,94629.38
2022-09-01T14:38:09.730Z,94641.00
2022-09-01T14:40:38.906Z,94636.31
2022-09-01T14:43:12.977Z,94641.00
2022-09-01T14:45:41.305Z,94637.91
2022-09-01T14:48:09.151Z,94630.19
2022-09-01T14:50:41.296Z,94633.91
2022-09-01T14:53:08.700Z,94636.31
2022-09-01T14:55:35.489Z,94633.81
2022-09-01T14:58:02.354Z,94629.78
2022-09-01T15:00:31.997Z,94629.97
2022-09-01T15:02:58.896Z,94628.91
2022-09-01T15:05:25.756Z,94627.03
2022-09-01T15:07:53.219Z,94628.44
2022-09-01T15:10:25.252Z,94636.69
2022-09-01T15:12:58.268Z,94636.69
2022-09-01T15:15:27.832Z,94637.44
2022-09-01T15:17:55.952Z,94648.31
2022-09-01T15:20:42.517Z,94651.34
2022-09-01T15:23:10.167Z,94648.22
2022-09-01T15:25:37.226Z,94629.75
2022-09-01T15:28:06.107Z,94634.31
2022-09-01T15:30:33.866Z,94612.28
2022-09-01T15:33:00.923Z,94630.19
2022-09-01T15:35:30.731Z,94632.94
2022-09-01T15:37:59.148Z,94639.84
2022-09-01T15:40:28.906Z,94638.75
2022-09-01T15:42:57.327Z,94642.16
2022-09-01T15:45:25.564Z,94653.03
2022-09-01T15:47:52.445Z,94667.69
2022-09-01T15:50:23.323Z,94665.09
2022-09-01T15:53:07.221Z,94669.53
2022-09-01T15:55:52.238Z,94673.34
2022-09-01T15:58:19.252Z,94676.41
2022-09-01T16:00:46.484Z,94677.13
2022-09-01T16:03:13.602Z,94684.09
2022-09-01T16:05:41.481Z,94692.63
2022-09-01T16:08:09.733Z,94695.94
2022-09-01T16:10:56.959Z,94695.06
2022-09-01T16:13:23.904Z,94699.28
2022-09-01T16:16:03.157Z,94693.13
2022-09-01T16:18:45.885Z,94685.03
2022-09-01T16:21:48.292Z,94686.13
2022-09-01T16:24:15.564Z,94682.38
2022-09-01T16:26:47.201Z,94681.19
2022-09-01T16:29:53.212Z,94684.31
2022-09-01T16:32:22.006Z,94675.41
2022-09-01T16:34:51.103Z,94676.59
2022-09-01T16:37:39.703Z,94689.34
2022-09-01T16:40:25.696Z,94695.13
2022-09-01T16:43:21.861Z,94696.56
2022-09-01T16:46:07.500Z,94706.75
2022-09-01T16:48:42.800Z,94687.31
2022-09-01T16:51:30.084Z,94701.66
2022-09-01T16:54:13.822Z,94700.84
2022-09-01T16:56:59.719Z,94707.41
2022-09-01T16:59:54.750Z,94711.91
2022-09-01T17:02:47.852Z,94711.94
2022-09-01T17:05:30.172Z,94705.84
2022-09-01T17:08:12.072Z,94713.41
2022-09-01T17:10:56.346Z,94702.34
2022-09-01T17:13:40.010Z,94691.97
2022-09-01T17:16:37.355Z,94697.47
2022-09-01T17:19:07.524Z,94707.84
2022-09-01T17:21:46.141Z,94705.53
2022-09-01T17:24:24.138Z,94709.75
2022-09-01T17:26:53.357Z,94698.88
2022-09-01T17:29:26.594Z,94715.13
2022-09-01T17:32:17.448Z,94709.31
2022-09-01T17:34:57.166Z,94716.63
2022-09-01T17:37:40.067Z,94719.66
2022-09-01T17:40:16.852Z,94724.28
2022-09-01T17:42:52.680Z,94723.88
2022-09-01T17:45:29.002Z,94725.63
2022-09-01T17:48:08.971Z,94724.97
2022-09-01T17:51:12.097Z,94724.63
2022-09-01T17:53:44.579Z,94724.66
2022-09-01T17:56:20.482Z,94723.34
2022-09-01T17:59:01.572Z,94723.38
2022-09-01T18:01:32.072Z,94726.47
2022-09-01T18:04:20.726Z,94732.25
2022-09-01T18:06:54.664Z,94724.94
2022-09-01T18:09:26.145Z,94725.72
2022-09-01T18:12:02.600Z,94733.41
2022-09-01T18:15:25.203Z,94727.28
2022-09-01T18:18:23.950Z,94726.91
2022-09-01T18:20:56.203Z,94734.25
2022-09-01T18:23:24.119Z,94738.78
2022-09-01T18:26:23.444Z,94739.66
2022-09-01T18:28:54.740Z,94734.28
2022-09-01T18:31:34.690Z,94735.78
2022-09-01T18:34:31.916Z,94743.09
2022-09-01T18:37:08.255Z,94736.56
2022-09-01T18:39:53.194Z,94740.72
2022-09-01T18:42:50.938Z,94741.44
2022-09-01T18:45:39.902Z,94741.38
2022-09-01T18:48:15.354Z,94736.44
2022-09-01T18:50:50.009Z,94743.34
2022-09-01T18:53:32.410Z,94744.13
2022-09-01T18:56:11.464Z,94744.75
2022-09-01T18:58:56.390Z,94748.22
2022-09-01T19:01:32.911Z,94753.16
2022-09-01T19:04:27.690Z,94757.78
2022-09-01T19:07:15.393Z,94753.13
2022-09-01T19:10:02.008Z,94755.03
2022-09-01T19:12:46.651Z,94762.84
2022-09-01T19:15:27.607Z,94765.53
2022-09-01T19:18:19.309Z,94762.06
2022-09-01T19:21:08.724Z,94759.72
2022-09-01T19:23:50.847Z,94760.75
2022-09-01T19:26:22.257Z,94767.50
2022-09-01T19:28:58.715Z,94775.69
2022-09-01T19:31:35.731Z,94781.44
2022-09-01T19:34:14.761Z,94759.66
2022-09-01T19:36:53.026Z,94774.66
2022-09-01T19:39:25.981Z,94779.78
2022-09-01T19:42:20.415Z,94777.59
2022-09-01T19:45:33.030Z,94781.31
2022-09-01T19:48:10.082Z,94782.72
2022-09-01T19:50:51.065Z,94787.00
2022-09-01T19:53:21.218Z,94789.03
2022-09-01T19:56:07.212Z,94785.03
2022-09-01T19:59:13.016Z,94793.59
2022-09-01T20:01:56.310Z,94788.38
2022-09-01T20:04:46.470Z,94777.81
2022-09-01T20:07:28.895Z,94776.97
2022-09-01T20:10:12.019Z,94774.56
2022-09-01T20:12:49.366Z,94779.50
2022-09-01T20:15:28.345Z,94782.38
2022-09-01T20:18:02.413Z,94779.34
2022-09-01T20:20:37.595Z,94778.78
2022-09-01T20:23:21.019Z,94781.72
2022-09-01T20:25:59.074Z,94776.38
2022-09-01T20:28:55.702Z,94778.41
2022-09-01T20:31:54.989Z,94777.22
2022-09-01T20:34:32.879Z,94780.38
2022-09-01T20:37:06.596Z,94760.91
2022-09-01T20:39:59.787Z,94777.84
2022-09-01T20:42:55.485Z,94781.25
2022-09-01T20:45:25.185Z,94777.03
2022-09-01T20:47:58.843Z,94773.31
2022-09-01T20:50:49.881Z,94771.03
2022-09-01T20:53:31.970Z,94771.34
2022-09-01T20:56:04.460Z,94772.66
2022-09-01T20:59:11.262Z,94770.28
2022-09-01T21:01:54.216Z,94772.41
2022-09-01T21:04:42.604Z,94764.09
2022-09-01T21:07:39.124Z,94766.34
2022-09-01T21:10:05.934Z,94772.41
2022-09-01T21:12:50.891Z,94773.81
2022-09-01T21:15:46.347Z,94783.03
2022-09-01T21:18:25.168Z,94780.78
2022-09-01T21:21:01.205Z,94782.34
2022-09-01T21:23:29.622Z,94792.13
2022-09-01T21:25:58.602Z,94795.75
2022-09-01T21:28:28.384Z,94796.81
2022-09-01T21:30:58.926Z,94790.59
2022-09-01T21:33:28.510Z,94791.41
2022-09-01T21:35:55.987Z,94795.16
2022-09-01T21:38:22.949Z,94792.72
2022-09-01T21:40:51.072Z,94796.50
2022-09-01T21:43:30.028Z,94801.00
2022-09-01T21:45:57.435Z,94803.41
2022-09-01T21:48:24.748Z,94817.19
2022-09-01T21:50:51.831Z,94812.31
2022-09-01T21:53:19.091Z,94808.84
2022-09-01T21:55:46.216Z,94802.16
2022-09-01T21:58:13.406Z,94807.66
2022-09-01T22:00:43.326Z,94816.31
2022-09-01T22:03:11.792Z,94819.47
2022-09-01T22:05:41.844Z,94808.31
2022-09-01T22:08:14.558Z,94810.59
2022-09-01T22:10:49.828Z,94815.19
2022-09-01T22:13:17.910Z,94801.44
2022-09-01T22:15:49.275Z,94805.22
2022-09-01T22:18:17.829Z,94779.91
2022-09-01T22:20:45.294Z,94804.75
2022-09-01T22:23:13.621Z,94792.25
2022-09-01T22:25:43.192Z,94797.78
2022-09-01T22:28:11.049Z,94789.72
2022-09-01T22:30:47.208Z,94792.66
2022-09-01T22:33:14.407Z,94784.53
2022-09-01T22:35:43.379Z,94777.97
2022-09-01T22:38:10.966Z,94791.72
2022-09-01T22:40:47.249Z,94780.88
2022-09-01T22:43:17.809Z,94766.69
2022-09-01T22:45:50.099Z,94762.44
2022-09-01T22:48:19.230Z,94774.44
2022-09-01T22:50:47.459Z,94775.22
2022-09-01T22:53:16.685Z,94776.22
2022-09-01T22:55:47.515Z,94770.66
2022-09-01T22:58:15.816Z,94776.34
2022-09-01T23:00:48.497Z,94769.38
2022-09-01T23:03:15.803Z,94774.44
2022-09-01T23:05:43.647Z,94774.13
2022-09-01T23:08:11.178Z,94773.94
2022-09-01T23:10:37.976Z,94771.03
2022-09-01T23:13:04.755Z,94772.94
2022-09-01T23:15:33.631Z,94769.28
2022-09-01T23:18:00.864Z,94768.09
2022-09-01T23:20:28.168Z,94762.13
2022-09-01T23:22:55.127Z,94756.25
2022-09-01T23:25:22.059Z,94755.66
2022-09-01T23:27:48.844Z,94754.81
2022-09-01T23:30:16.347Z,94747.88
2022-09-01T23:32:43.705Z,94738.28
2022-09-01T23:35:10.946Z,94739.81
2022-09-01T23:37:37.833Z,94735.44
2022-09-01T23:40:06.371Z,94739.19
2022-09-01T23:42:33.667Z,94742.22
2022-09-01T23:45:00.536Z,94748.88
2022-09-01T23:47:28.150Z,94755.78
2022-09-01T23:49:56.461Z,94751.44
2022-09-01T23:52:23.283Z,94756.63
2022-09-01T23:54:50.040Z,94757.13
2022-09-01T23:57:16.930Z,94749.53
2022-09-01T23:59:44.814Z,94752.34
